Main page
METAR-TAF:

METAR-TAF

Airports :

Inverness Airport

Inverness, Scotland

latitude: 57-32N, longitude: 004-03W, elevation: 9 m

Current weather observation

The report was made 25 minutes ago, at 14:20 UTC
Wind 17 kt from the West/Southwest
Temperature 8°C
Humidity 71%
Pressure 1005 hPa
Visibility 10 km or more
Few clouds at a height of 1600 ft
Scattered clouds at a height of 3000 ft
showers in vicinity,

METAR: EGPE 271420Z 24017KT 9999 VCSH FEW016 SCT030 08/03 Q1005

Time: 14:45 (14:45 UTC)

Forecast

The report was made 51 minutes ago, at 13:54 UTC
Forecast valid from 27 at 15 UTC to 27 at 24 UTC
Wind 15 kt from the Southwest
Visibility 10 km or more
Scattered clouds at a height of 3000 ft
Probability 30% :
Temporary
from 27 at 15 UTC to 27 at 24 UTC
Visibility: 6000 m
rain showers
Probability 30% :
Temporary
from 27 at 15 UTC to 27 at 22 UTC
Wind 20 kt from the West/Southwest with gusts up to 30 kt

TAF: EGPE 271354Z 2715/2724 23015KT 9999 SCT030 PROB30 TEMPO 2715/2724 6000 SHRA PROB30 TEMPO 2715/2722 24020G30KT

Weather observations and forecasts of more than 4000 airports (METAR and TAF reports).

The available stations are represented by yellow and red dots on the map.

Hover mouse over dot to see the name of the station.

Then click to see weather observations and forecasts.

To change the map : click on the green buttons with a black cross to zoom in, on the green button with a dash to zoom out, or on the green arrows for adjacent maps.


METAR-TAF: